createdAt,value
2019-05-01T00:00:16.694Z,12.00
2019-05-01T00:01:16.705Z,11.80
2019-05-01T00:02:16.725Z,11.80
2019-05-01T00:03:16.697Z,11.40
2019-05-01T00:04:16.651Z,12.40
2019-05-01T00:05:16.646Z,11.40
2019-05-01T00:06:16.629Z,11.50
2019-05-01T00:07:16.641Z,11.40
2019-05-01T00:08:16.609Z,11.70
2019-05-01T00:09:16.602Z,11.80
2019-05-01T00:10:16.595Z,11.60
2019-05-01T00:11:16.656Z,12.60
2019-05-01T00:12:16.568Z,11.90
2019-05-01T00:13:16.558Z,12.10
2019-05-01T00:14:16.541Z,11.60
2019-05-01T00:15:16.536Z,11.80
2019-05-01T00:16:16.523Z,12.60
2019-05-01T00:17:16.531Z,11.60
2019-05-01T00:18:16.514Z,11.50
2019-05-01T00:19:16.489Z,12.00
2019-05-01T00:20:16.482Z,11.80
2019-05-01T00:21:16.465Z,12.10
2019-05-01T00:22:16.471Z,11.50
2019-05-01T00:23:16.446Z,12.10
2019-05-01T00:24:16.455Z,12.20
2019-05-01T00:25:16.431Z,11.90
2019-05-01T00:26:16.410Z,12.00
2019-05-01T00:27:16.418Z,11.80
2019-05-01T00:28:16.385Z,11.80
2019-05-01T00:29:16.379Z,12.10
2019-05-01T00:30:29.107Z,12.70
2019-05-01T00:31:17.382Z,11.90
2019-05-01T00:32:16.365Z,11.80
2019-05-01T00:33:16.339Z,11.40
2019-05-01T00:34:16.330Z,11.80
2019-05-01T00:35:16.309Z,12.70
2019-05-01T00:36:16.303Z,12.00
2019-05-01T00:37:16.306Z,12.40
2019-05-01T00:38:16.294Z,11.90
2019-05-01T00:39:16.273Z,11.60
2019-05-01T00:40:16.251Z,12.20
2019-05-01T00:41:16.240Z,11.80
2019-05-01T00:42:16.233Z,12.30
2019-05-01T00:43:16.254Z,12.60
2019-05-01T00:44:16.208Z,13.00
2019-05-01T00:45:16.232Z,11.80
2019-05-01T00:46:16.190Z,11.80
2019-05-01T00:47:16.182Z,12.00
2019-05-01T00:48:16.222Z,12.40
2019-05-01T00:49:16.152Z,11.90
2019-05-01T00:50:16.154Z,13.00
2019-05-01T00:51:16.131Z,12.70
2019-05-01T00:52:16.143Z,13.20
2019-05-01T00:53:16.130Z,12.70
2019-05-01T00:54:16.102Z,12.50
2019-05-01T00:55:16.088Z,12.80
2019-05-01T00:56:16.079Z,12.90
2019-05-01T00:57:16.100Z,12.20
2019-05-01T00:58:16.088Z,12.80
2019-05-01T00:59:16.041Z,12.60
2019-05-01T01:00:16.033Z,12.20
2019-05-01T01:01:16.028Z,12.60
2019-05-01T01:02:16.017Z,12.10
2019-05-01T01:03:16.001Z,12.40
2019-05-01T01:04:16.003Z,12.30
2019-05-01T01:05:15.975Z,12.50
2019-05-01T01:06:15.963Z,11.90
2019-05-01T01:07:15.976Z,12.60
2019-05-01T01:08:15.946Z,12.50
2019-05-01T01:09:15.946Z,12.60
2019-05-01T01:10:15.940Z,13.00
2019-05-01T01:11:15.917Z,12.30
2019-05-01T01:12:15.906Z,12.00
2019-05-01T01:13:15.886Z,12.70
2019-05-01T01:14:15.910Z,12.90
2019-05-01T01:15:15.869Z,12.10
2019-05-01T01:16:15.853Z,12.40
2019-05-01T01:17:15.860Z,12.20
2019-05-01T01:18:15.838Z,12.60
2019-05-01T01:19:15.853Z,12.90
2019-05-01T01:20:15.813Z,12.20
2019-05-01T01:21:15.805Z,12.30
2019-05-01T01:22:15.787Z,12.10
2019-05-01T01:23:15.783Z,11.90
2019-05-01T01:24:15.780Z,11.80
2019-05-01T01:25:15.767Z,12.20
2019-05-01T01:26:15.745Z,12.30
2019-05-01T01:27:15.733Z,12.10
2019-05-01T01:28:15.733Z,12.00
2019-05-01T01:29:15.729Z,12.20
2019-05-01T01:30:15.760Z,12.60
2019-05-01T01:31:15.693Z,12.10
2019-05-01T01:32:15.678Z,12.20
2019-05-01T01:33:15.666Z,12.50
2019-05-01T01:34:15.682Z,12.50
2019-05-01T01:35:15.648Z,12.70
2019-05-01T01:36:15.647Z,13.20
2019-05-01T01:37:15.623Z,12.10
2019-05-01T01:38:15.622Z,12.60
2019-05-01T01:39:15.639Z,13.80
2019-05-01T01:40:15.594Z,13.30
2019-05-01T01:41:15.576Z,13.10
2019-05-01T01:42:15.566Z,12.40
2019-05-01T01:43:15.562Z,13.60
2019-05-01T01:44:15.573Z,12.30
2019-05-01T01:45:15.540Z,12.90
2019-05-01T01:46:15.534Z,11.70
2019-05-01T01:47:15.521Z,12.90
2019-05-01T01:48:15.505Z,12.20
2019-05-01T01:49:15.487Z,13.00
2019-05-01T01:50:15.500Z,12.70
2019-05-01T01:51:15.471Z,12.30
2019-05-01T01:52:15.455Z,12.10
2019-05-01T01:53:15.475Z,12.40
2019-05-01T01:54:15.435Z,12.20
2019-05-01T01:55:15.441Z,11.70
2019-05-01T01:56:15.422Z,12.80
2019-05-01T01:57:15.406Z,11.90
2019-05-01T01:58:15.409Z,11.90
2019-05-01T01:59:15.386Z,11.90
2019-05-01T02:00:15.391Z,12.30
2019-05-01T02:01:15.378Z,12.00
2019-05-01T02:02:15.349Z,11.50
2019-05-01T02:03:15.337Z,11.80
2019-05-01T02:04:15.341Z,11.60
2019-05-01T02:05:15.336Z,11.90
2019-05-01T02:06:15.307Z,12.00
2019-05-01T02:07:15.300Z,12.10
2019-05-01T02:08:15.286Z,12.60
2019-05-01T02:09:15.281Z,12.20
2019-05-01T02:10:15.435Z,12.80
2019-05-01T02:11:15.255Z,12.10
2019-05-01T02:12:15.243Z,12.90
2019-05-01T02:13:15.229Z,12.60
2019-05-01T02:14:15.221Z,12.40
2019-05-01T02:15:15.229Z,12.30
2019-05-01T02:16:15.208Z,12.60
2019-05-01T02:17:15.187Z,12.60
2019-05-01T02:18:15.196Z,12.10
2019-05-01T02:19:15.168Z,11.50
2019-05-01T02:20:15.181Z,12.40
2019-05-01T02:21:15.140Z,12.80
2019-05-01T02:22:15.133Z,12.10
2019-05-01T02:23:15.117Z,11.80
2019-05-01T02:24:15.107Z,12.50
2019-05-01T02:25:15.126Z,11.80
2019-05-01T02:26:15.085Z,13.10
2019-05-01T02:27:15.102Z,12.10
2019-05-01T02:28:15.066Z,12.90
2019-05-01T02:29:15.056Z,12.00
2019-05-01T02:30:15.070Z,11.80
2019-05-01T02:31:26.970Z,12.40
2019-05-01T02:32:16.017Z,12.30
2019-05-01T02:33:15.008Z,11.70
2019-05-01T02:34:15.020Z,12.80
2019-05-01T02:35:15.001Z,11.60
2019-05-01T02:36:15.003Z,12.70
2019-05-01T02:37:14.999Z,11.60
2019-05-01T02:38:14.970Z,11.50
2019-05-01T02:39:14.943Z,12.10
2019-05-01T02:40:14.937Z,11.80
2019-05-01T02:41:14.942Z,11.70
2019-05-01T02:42:14.945Z,11.60
2019-05-01T02:43:14.899Z,12.00
2019-05-01T02:44:14.888Z,12.10
2019-05-01T02:45:14.877Z,12.30
2019-05-01T02:46:14.922Z,12.00
2019-05-01T02:47:14.860Z,11.60
2019-05-01T02:48:14.860Z,12.00
2019-05-01T02:49:14.854Z,12.70
2019-05-01T02:50:14.826Z,11.60
2019-05-01T02:51:14.828Z,12.20
2019-05-01T02:52:14.822Z,12.30
2019-05-01T02:53:14.793Z,12.50
2019-05-01T02:54:14.798Z,12.20
2019-05-01T02:55:14.773Z,12.50
2019-05-01T02:56:14.767Z,12.40
2019-05-01T02:57:14.786Z,12.60
2019-05-01T02:58:14.740Z,12.80
2019-05-01T02:59:14.725Z,12.70
2019-05-01T03:00:14.714Z,12.70
2019-05-01T03:01:14.714Z,12.30
2019-05-01T03:02:14.732Z,12.20
2019-05-01T03:03:14.686Z,12.30
2019-05-01T03:04:14.674Z,12.70
2019-05-01T03:05:14.658Z,12.80
2019-05-01T03:06:14.655Z,12.80
2019-05-01T03:07:14.655Z,12.50
2019-05-01T03:08:14.632Z,12.50
2019-05-01T03:09:14.640Z,12.40
2019-05-01T03:10:14.626Z,12.90
2019-05-01T03:11:14.600Z,12.20
2019-05-01T03:12:14.631Z,12.40
2019-05-01T03:13:14.592Z,13.00
2019-05-01T03:14:14.583Z,13.00
2019-05-01T03:15:14.555Z,12.30
2019-05-01T03:16:14.550Z,12.60
2019-05-01T03:17:14.553Z,12.80
2019-05-01T03:18:14.525Z,12.00
2019-05-01T03:19:14.528Z,12.70
2019-05-01T03:20:14.533Z,13.10
2019-05-01T03:21:14.493Z,12.20
2019-05-01T03:22:14.502Z,11.70
2019-05-01T03:23:14.465Z,11.90
2019-05-01T03:24:14.454Z,12.40
2019-05-01T03:25:14.449Z,11.80
2019-05-01T03:26:14.427Z,12.60
2019-05-01T03:27:14.456Z,13.30
2019-05-01T03:28:14.404Z,13.30
2019-05-01T03:29:14.394Z,12.30
2019-05-01T03:30:14.541Z,13.00
2019-05-01T03:31:14.388Z,13.10
2019-05-01T03:32:18.669Z,12.70
2019-05-01T03:33:15.375Z,12.30
2019-05-01T03:34:14.345Z,12.90
2019-05-01T03:35:14.330Z,12.50
2019-05-01T03:36:14.345Z,13.10
2019-05-01T03:37:14.309Z,13.10
2019-05-01T03:38:14.302Z,13.30
2019-05-01T03:39:14.316Z,13.60
2019-05-01T03:40:14.271Z,13.40
2019-05-01T03:41:14.268Z,13.20
2019-05-01T03:42:14.261Z,13.10
2019-05-01T03:43:14.281Z,13.50
2019-05-01T03:44:14.232Z,13.60
2019-05-01T03:45:14.225Z,13.70
2019-05-01T03:46:14.221Z,13.80
2019-05-01T03:47:14.197Z,13.60
2019-05-01T03:48:14.193Z,13.50
2019-05-01T03:49:14.198Z,13.40
2019-05-01T03:50:14.181Z,13.80
2019-05-01T03:51:14.157Z,13.90
2019-05-01T03:52:14.142Z,14.00
2019-05-01T03:53:14.161Z,13.90
2019-05-01T03:54:14.132Z,14.20
2019-05-01T03:55:14.112Z,13.70
2019-05-01T03:56:14.096Z,14.70
2019-05-01T03:57:14.093Z,14.40
2019-05-01T03:58:14.072Z,14.00
2019-05-01T03:59:14.106Z,13.70
2019-05-01T04:00:14.049Z,14.10
2019-05-01T04:01:14.038Z,14.00
2019-05-01T04:02:31.654Z,15.00
2019-05-01T04:03:15.015Z,14.10
2019-05-01T04:04:14.067Z,14.30
2019-05-01T04:05:13.996Z,14.40
2019-05-01T04:06:13.986Z,14.30
2019-05-01T04:07:13.975Z,14.80
2019-05-01T04:08:13.988Z,14.70
2019-05-01T04:09:13.995Z,14.40
2019-05-01T04:10:13.949Z,14.80
2019-05-01T04:11:13.945Z,13.80
2019-05-01T04:12:13.917Z,14.10
2019-05-01T04:13:13.930Z,13.20
2019-05-01T04:14:13.907Z,13.70
2019-05-01T04:15:13.882Z,14.70
2019-05-01T04:16:13.879Z,15.10
2019-05-01T04:17:13.918Z,14.50
2019-05-01T04:18:13.849Z,14.70
2019-05-01T04:19:13.868Z,14.20
2019-05-01T04:20:13.846Z,14.70
2019-05-01T04:21:13.853Z,14.40
2019-05-01T04:22:13.804Z,15.10
2019-05-01T04:23:13.814Z,15.10
2019-05-01T04:24:13.815Z,15.00
2019-05-01T04:25:13.786Z,15.00
2019-05-01T04:26:13.760Z,14.90
2019-05-01T04:27:13.748Z,15.40
2019-05-01T04:28:13.751Z,14.40
2019-05-01T04:29:13.746Z,14.50
2019-05-01T04:30:13.755Z,15.20
2019-05-01T04:31:13.935Z,14.90
2019-05-01T04:32:13.693Z,15.30
2019-05-01T04:33:13.682Z,14.00
2019-05-01T04:34:13.677Z,14.00
2019-05-01T04:35:13.686Z,14.50
2019-05-01T04:36:13.751Z,14.60
2019-05-01T04:37:13.652Z,15.20
2019-05-01T04:38:13.633Z,15.00
2019-05-01T04:39:13.635Z,14.60
2019-05-01T04:40:13.658Z,14.80
2019-05-01T04:41:13.594Z,15.20
2019-05-01T04:42:13.594Z,14.70
2019-05-01T04:43:13.618Z,14.50
2019-05-01T04:44:13.569Z,14.50
2019-05-01T04:45:13.571Z,15.40
2019-05-01T04:46:13.552Z,13.90
2019-05-01T04:47:13.532Z,14.80
2019-05-01T04:48:13.515Z,14.50
2019-05-01T04:49:13.512Z,14.50
2019-05-01T04:50:13.493Z,14.40
2019-05-01T04:51:13.499Z,15.40
2019-05-01T04:52:13.487Z,14.20
2019-05-01T04:53:13.459Z,14.80
2019-05-01T04:54:13.449Z,14.50
2019-05-01T04:55:13.447Z,15.30
2019-05-01T04:56:13.439Z,16.00
2019-05-01T04:57:13.415Z,14.70
2019-05-01T04:58:13.418Z,15.60
2019-05-01T04:59:13.401Z,14.90
2019-05-01T05:00:13.389Z,14.80
2019-05-01T05:01:13.420Z,14.30
2019-05-01T05:02:13.367Z,14.50
2019-05-01T05:03:13.351Z,14.80
2019-05-01T05:04:13.337Z,15.10
2019-05-01T05:05:13.347Z,14.70
2019-05-01T05:06:13.342Z,14.80
2019-05-01T05:07:13.309Z,15.70
2019-05-01T05:08:13.298Z,15.90
2019-05-01T05:09:13.289Z,14.90
2019-05-01T05:10:13.271Z,15.70
2019-05-01T05:11:13.275Z,14.90
2019-05-01T05:12:13.251Z,15.60
2019-05-01T05:13:13.263Z,14.90
2019-05-01T05:14:13.242Z,14.80
2019-05-01T05:15:13.219Z,15.20
2019-05-01T05:16:13.235Z,15.20
2019-05-01T05:17:13.195Z,15.40
2019-05-01T05:18:13.217Z,15.00
2019-05-01T05:19:13.170Z,14.80
2019-05-01T05:20:13.161Z,14.90
2019-05-01T05:21:13.192Z,14.60
2019-05-01T05:22:13.160Z,15.60
2019-05-01T05:23:13.139Z,15.50
2019-05-01T05:24:13.115Z,14.80
2019-05-01T05:25:13.127Z,15.70
2019-05-01T05:26:13.114Z,16.40
2019-05-01T05:27:13.105Z,15.50
2019-05-01T05:28:13.105Z,15.60
2019-05-01T05:29:13.062Z,16.60
2019-05-01T05:30:13.058Z,16.10
2019-05-01T05:31:13.097Z,15.90
2019-05-01T05:32:13.030Z,16.20
2019-05-01T05:33:18.511Z,14.90
2019-05-01T05:34:14.008Z,16.20
2019-05-01T05:35:13.009Z,14.70
2019-05-01T05:36:13.004Z,15.30
2019-05-01T05:37:12.999Z,15.30
2019-05-01T05:38:12.971Z,15.20
2019-05-01T05:39:12.951Z,14.70
2019-05-01T05:40:12.941Z,15.20
2019-05-01T05:41:12.929Z,15.30
2019-05-01T05:42:12.934Z,15.00
2019-05-01T05:43:12.936Z,15.50
2019-05-01T05:44:12.897Z,15.50
2019-05-01T05:45:12.891Z,15.40
2019-05-01T05:46:12.885Z,15.60
2019-05-01T05:47:12.879Z,15.70
2019-05-01T05:48:12.868Z,15.90
2019-05-01T05:49:12.855Z,15.60
2019-05-01T05:50:12.832Z,15.50
2019-05-01T05:51:12.821Z,15.50
2019-05-01T05:52:12.843Z,14.50
2019-05-01T05:53:12.806Z,15.60
2019-05-01T05:54:12.788Z,15.80
2019-05-01T05:55:12.788Z,16.10
2019-05-01T05:56:12.767Z,15.80
2019-05-01T05:57:12.763Z,16.20
2019-05-01T05:58:12.758Z,16.10
2019-05-01T05:59:12.736Z,15.30
2019-05-01T06:00:12.725Z,15.00
2019-05-01T06:01:12.711Z,15.70
2019-05-01T06:02:12.724Z,15.60
2019-05-01T06:03:12.721Z,15.40
2019-05-01T06:04:12.679Z,15.00
2019-05-01T06:05:12.694Z,16.00
2019-05-01T06:06:12.658Z,15.50
2019-05-01T06:07:12.660Z,15.70
2019-05-01T06:08:12.639Z,14.90
2019-05-01T06:09:13.824Z,14.60
2019-05-01T06:10:12.611Z,15.40
2019-05-01T06:11:12.601Z,15.40
2019-05-01T06:12:12.609Z,14.80
2019-05-01T06:13:12.602Z,16.60
2019-05-01T06:14:12.571Z,15.70
2019-05-01T06:15:12.581Z,16.10
2019-05-01T06:16:16.218Z,16.60
2019-05-01T06:17:12.539Z,16.40
2019-05-01T06:18:12.547Z,17.30
2019-05-01T06:19:14.593Z,16.40
2019-05-01T06:20:12.505Z,17.40
2019-05-01T06:21:13.029Z,16.50
2019-05-01T06:22:12.486Z,17.30
2019-05-01T06:23:15.754Z,17.20
2019-05-01T06:24:13.463Z,17.30
2019-05-01T06:25:21.151Z,18.20
2019-05-01T06:26:13.455Z,17.60
2019-05-01T06:27:13.716Z,18.20
2019-05-01T06:28:12.428Z,18.00
2019-05-01T06:29:12.402Z,16.80
2019-05-01T06:30:12.630Z,17.60
2019-05-01T06:31:12.383Z,17.80
2019-05-01T06:32:12.378Z,17.80
2019-05-01T06:33:12.398Z,17.30
2019-05-01T06:34:12.373Z,18.00
2019-05-01T06:35:12.339Z,17.60
2019-05-01T06:36:13.262Z,17.00
2019-05-01T06:37:12.332Z,17.70
2019-05-01T06:38:12.306Z,17.60
2019-05-01T06:39:13.288Z,17.90
2019-05-01T06:40:12.285Z,17.60
2019-05-01T06:41:12.272Z,17.00
2019-05-01T06:42:14.986Z,17.10
2019-05-01T06:43:12.279Z,18.00
2019-05-01T06:44:12.242Z,18.40
2019-05-01T06:45:13.110Z,17.40
2019-05-01T06:46:12.216Z,17.10
2019-05-01T06:47:12.219Z,17.20
2019-05-01T06:48:14.206Z,18.10
2019-05-01T06:49:13.203Z,18.50
2019-05-01T06:50:12.177Z,17.30
2019-05-01T06:51:12.988Z,17.80
2019-05-01T06:52:13.150Z,18.00
2019-05-01T06:53:12.159Z,18.10
2019-05-01T06:54:16.348Z,18.40
2019-05-01T06:55:13.125Z,17.20
2019-05-01T06:56:12.107Z,17.60
2019-05-01T06:57:12.099Z,18.50
2019-05-01T06:58:14.906Z,17.70
2019-05-01T06:59:13.096Z,17.40
2019-05-01T07:00:12.092Z,18.00
2019-05-01T07:01:13.739Z,17.30
2019-05-01T07:02:15.856Z,16.70
2019-05-01T07:03:12.036Z,16.80
2019-05-01T07:04:14.100Z,18.20
2019-05-01T07:05:14.614Z,18.10
2019-05-01T07:06:14.327Z,17.90
2019-05-01T07:07:24.636Z,17.30
2019-05-01T07:08:23.960Z,18.20
2019-05-01T07:09:21.307Z,17.90
2019-05-01T07:10:12.977Z,17.70
2019-05-01T07:11:15.480Z,16.70
2019-05-01T07:12:11.927Z,17.50
2019-05-01T07:13:11.935Z,18.50
2019-05-01T07:14:16.568Z,17.70
2019-05-01T07:15:12.931Z,17.60
2019-05-01T07:16:11.881Z,17.70
2019-05-01T07:17:13.681Z,18.20
2019-05-01T07:18:11.868Z,18.40
2019-05-01T07:19:11.847Z,17.90
2019-05-01T07:20:16.577Z,17.50
2019-05-01T07:21:12.848Z,18.30
2019-05-01T07:22:11.822Z,18.60
2019-05-01T07:23:12.819Z,18.10
2019-05-01T07:24:12.792Z,18.40
2019-05-01T07:25:11.799Z,17.50
2019-05-01T07:26:13.632Z,19.20
2019-05-01T07:27:11.763Z,18.00
2019-05-01T07:28:11.774Z,18.30
2019-05-01T07:29:11.746Z,18.40
2019-05-01T07:30:15.920Z,19.00
2019-05-01T07:31:12.715Z,17.60
2019-05-01T07:32:11.750Z,17.50
2019-05-01T07:33:16.142Z,17.60
2019-05-01T07:34:16.591Z,17.90
2019-05-01T07:35:12.715Z,18.20
2019-05-01T07:36:15.506Z,17.90
2019-05-01T07:37:11.655Z,18.30
2019-05-01T07:38:11.643Z,18.10
2019-05-01T07:39:14.745Z,17.60
2019-05-01T07:40:11.641Z,18.40
2019-05-01T07:41:12.470Z,18.40
2019-05-01T07:42:12.380Z,18.30
2019-05-01T07:43:11.593Z,18.20
2019-05-01T07:44:11.703Z,18.40
2019-05-01T07:45:11.572Z,18.00
2019-05-01T07:46:13.793Z,18.00
2019-05-01T07:47:12.546Z,18.40
2019-05-01T07:48:11.570Z,17.80
2019-05-01T07:49:12.978Z,18.40
2019-05-01T07:50:12.525Z,18.50
2019-05-01T07:51:11.515Z,18.40
2019-05-01T07:52:12.487Z,18.30
2019-05-01T07:53:12.497Z,18.90
2019-05-01T07:54:11.471Z,19.00
2019-05-01T07:55:12.963Z,18.70
2019-05-01T07:56:12.459Z,18.40
2019-05-01T07:57:11.438Z,18.30
2019-05-01T07:58:16.001Z,18.60
2019-05-01T07:59:11.410Z,18.50
2019-05-01T08:00:11.414Z,17.90
2019-05-01T08:01:13.010Z,18.50
2019-05-01T08:02:12.401Z,19.20
2019-05-01T08:03:11.367Z,18.30
2019-05-01T08:04:13.831Z,17.70
2019-05-01T08:05:12.344Z,18.60
2019-05-01T08:06:11.346Z,17.80
2019-05-01T08:07:11.340Z,17.70
2019-05-01T08:08:11.327Z,17.60
2019-05-01T08:09:15.103Z,18.10
2019-05-01T08:10:11.288Z,17.60
2019-05-01T08:11:11.297Z,17.90
2019-05-01T08:12:11.268Z,18.20
2019-05-01T08:13:11.262Z,17.20
2019-05-01T08:14:11.996Z,18.30
2019-05-01T08:15:11.239Z,17.40
2019-05-01T08:16:11.262Z,18.20
2019-05-01T08:17:12.822Z,18.50
2019-05-01T08:18:12.200Z,17.90
2019-05-01T08:19:11.198Z,18.10
2019-05-01T08:20:15.016Z,17.90
2019-05-01T08:21:12.222Z,18.80
2019-05-01T08:22:11.160Z,18.80
2019-05-01T08:23:12.159Z,19.50
2019-05-01T08:24:11.136Z,19.00
2019-05-01T08:25:11.126Z,18.50
2019-05-01T08:26:11.144Z,18.40
2019-05-01T08:27:11.131Z,17.50
2019-05-01T08:28:11.103Z,18.00
2019-05-01T08:29:11.084Z,18.20
2019-05-01T08:30:12.774Z,18.10
2019-05-01T08:31:12.077Z,18.30
2019-05-01T08:32:11.059Z,18.70
2019-05-01T08:33:14.648Z,18.20
2019-05-01T08:34:11.023Z,18.30
2019-05-01T08:35:11.029Z,18.80
2019-05-01T08:36:11.677Z,18.00
2019-05-01T08:37:11.034Z,18.50
2019-05-01T08:38:11.012Z,17.80
2019-05-01T08:39:13.761Z,18.50
2019-05-01T08:40:10.957Z,18.30
2019-05-01T08:41:11.002Z,18.20
2019-05-01T08:42:10.956Z,19.50
2019-05-01T08:43:13.784Z,17.70
2019-05-01T08:44:11.939Z,18.00
2019-05-01T08:45:10.911Z,17.90
2019-05-01T08:46:11.918Z,18.30
2019-05-01T08:47:11.924Z,17.80
2019-05-01T08:48:10.877Z,19.20
2019-05-01T08:49:11.386Z,17.80
2019-05-01T08:50:10.939Z,19.00
2019-05-01T08:51:10.909Z,17.80
2019-05-01T08:52:13.646Z,17.70
2019-05-01T08:53:10.863Z,18.60
2019-05-01T08:54:10.815Z,18.30
2019-05-01T08:55:10.925Z,18.60
2019-05-01T08:56:10.792Z,18.80
2019-05-01T08:57:10.846Z,18.00
2019-05-01T08:58:14.025Z,17.90
2019-05-01T08:59:10.765Z,18.10
2019-05-01T09:00:10.756Z,18.10
2019-05-01T09:01:14.832Z,17.90
2019-05-01T09:02:10.726Z,18.10
2019-05-01T09:03:13.530Z,18.70
2019-05-01T09:04:13.031Z,18.60
2019-05-01T09:05:27.875Z,17.80
2019-05-01T09:06:11.679Z,18.00
2019-05-01T09:07:14.721Z,18.60
2019-05-01T09:08:11.673Z,17.10
2019-05-01T09:09:10.648Z,18.10
2019-05-01T09:10:10.635Z,18.50
2019-05-01T09:11:10.629Z,18.80
2019-05-01T09:12:12.026Z,17.90
2019-05-01T09:13:10.657Z,17.80
2019-05-01T09:14:10.588Z,18.50
2019-05-01T09:15:12.804Z,18.40
2019-05-01T09:16:10.567Z,17.80
2019-05-01T09:17:10.576Z,18.20
2019-05-01T09:18:10.564Z,18.70
2019-05-01T09:19:10.536Z,19.00
2019-05-01T09:20:10.548Z,18.20
2019-05-01T09:21:10.560Z,18.80
2019-05-01T09:22:10.498Z,18.00
2019-05-01T09:23:14.319Z,17.70
2019-05-01T09:24:10.476Z,17.40
2019-05-01T09:25:10.466Z,17.60
2019-05-01T09:26:14.733Z,17.70
2019-05-01T09:27:11.451Z,18.30
2019-05-01T09:28:10.464Z,18.40
2019-05-01T09:29:11.018Z,18.10
2019-05-01T09:30:11.420Z,18.50
2019-05-01T09:31:10.411Z,17.90
2019-05-01T09:32:11.915Z,17.90
2019-05-01T09:33:10.386Z,18.10
2019-05-01T09:34:13.997Z,17.60
2019-05-01T09:35:15.901Z,17.40
2019-05-01T09:36:10.344Z,17.50
2019-05-01T09:37:10.331Z,16.80
2019-05-01T09:38:10.341Z,17.80
2019-05-01T09:39:10.317Z,17.40
2019-05-01T09:40:10.465Z,17.50
2019-05-01T09:41:10.294Z,16.90
2019-05-01T09:42:10.283Z,17.80
2019-05-01T09:43:10.311Z,17.10
2019-05-01T09:44:11.952Z,16.70
2019-05-01T09:45:10.247Z,16.40
2019-05-01T09:46:10.236Z,15.20
2019-05-01T09:47:10.224Z,17.00
2019-05-01T09:48:10.217Z,17.40
2019-05-01T09:49:14.326Z,16.60
2019-05-01T09:50:11.188Z,16.20
2019-05-01T09:51:10.184Z,15.40
2019-05-01T09:52:10.187Z,13.90
2019-05-01T09:53:10.160Z,13.10
2019-05-01T09:54:10.991Z,14.20
2019-05-01T09:55:10.146Z,15.00
2019-05-01T09:56:10.131Z,13.70
2019-05-01T09:57:10.127Z,12.70
2019-05-01T09:58:10.107Z,12.40
2019-05-01T09:59:12.547Z,11.50
2019-05-01T10:00:11.075Z,12.60
2019-05-01T10:01:10.067Z,12.60
2019-05-01T10:02:10.083Z,13.50
2019-05-01T10:03:13.185Z,13.20
2019-05-01T10:04:11.075Z,13.20
2019-05-01T10:05:10.199Z,12.00
2019-05-01T10:06:12.865Z,12.80
2019-05-01T10:07:10.999Z,12.30
2019-05-01T10:08:10.043Z,12.90
2019-05-01T10:09:12.095Z,13.10
2019-05-01T10:10:10.966Z,13.10
2019-05-01T10:11:09.968Z,12.90
2019-05-01T10:12:11.477Z,13.70
2019-05-01T10:13:09.984Z,14.80
2019-05-01T10:14:09.961Z,14.20
2019-05-01T10:15:09.919Z,13.90
2019-05-01T10:16:09.943Z,15.30
2019-05-01T10:17:09.907Z,14.60
2019-05-01T10:18:09.921Z,14.90
2019-05-01T10:19:09.874Z,14.50
2019-05-01T10:20:09.888Z,15.20
2019-05-01T10:21:09.860Z,15.20
2019-05-01T10:22:09.846Z,15.50
2019-05-01T10:23:13.244Z,15.80
2019-05-01T10:24:10.845Z,15.90
2019-05-01T10:25:12.369Z,15.60
2019-05-01T10:26:09.798Z,16.30
2019-05-01T10:27:09.795Z,16.30
2019-05-01T10:28:12.684Z,16.10
2019-05-01T10:29:10.767Z,17.00
2019-05-01T10:30:09.780Z,16.80
2019-05-01T10:31:11.813Z,16.00
2019-05-01T10:32:09.772Z,16.10
2019-05-01T10:33:09.729Z,16.30
2019-05-01T10:34:09.710Z,16.10
2019-05-01T10:35:14.193Z,15.80
2019-05-01T10:36:18.267Z,15.30
2019-05-01T10:37:10.675Z,15.10
2019-05-01T10:38:10.759Z,14.60
2019-05-01T10:39:09.666Z,15.30
2019-05-01T10:40:09.699Z,16.20
2019-05-01T10:41:10.662Z,15.30
2019-05-01T10:42:09.642Z,15.10
2019-05-01T10:43:09.671Z,15.40
2019-05-01T10:44:09.608Z,14.90
2019-05-01T10:45:09.620Z,14.70
2019-05-01T10:46:09.594Z,15.30
2019-05-01T10:47:09.587Z,14.30
2019-05-01T10:48:10.467Z,14.10
2019-05-01T10:49:09.545Z,14.60
2019-05-01T10:50:09.566Z,13.50
2019-05-01T10:51:09.536Z,14.40
2019-05-01T10:52:14.285Z,15.40
2019-05-01T10:53:10.507Z,14.20
2019-05-01T10:54:09.505Z,14.80
2019-05-01T10:55:09.540Z,14.70
2019-05-01T10:56:09.591Z,14.70
2019-05-01T10:57:09.487Z,14.40
2019-05-01T10:58:12.870Z,14.60
2019-05-01T10:59:10.440Z,13.40
2019-05-01T11:00:09.441Z,14.00
2019-05-01T11:01:09.439Z,14.70
2019-05-01T11:02:09.405Z,14.70
2019-05-01T11:03:09.401Z,13.20
2019-05-01T11:04:09.389Z,13.40
2019-05-01T11:05:09.372Z,13.00
2019-05-01T11:06:09.383Z,13.80
2019-05-01T11:07:09.355Z,22.00
2019-05-01T11:08:09.353Z,17.50
2019-05-01T11:09:09.361Z,13.80
2019-05-01T11:10:09.368Z,13.50
2019-05-01T11:11:09.354Z,13.20
2019-05-01T11:12:09.331Z,12.40
2019-05-01T11:13:09.287Z,14.00
2019-05-01T11:14:09.291Z,12.60
2019-05-01T11:15:09.310Z,11.80
2019-05-01T11:16:09.314Z,12.10
2019-05-01T11:17:09.323Z,12.80
2019-05-01T11:18:09.270Z,13.00
2019-05-01T11:19:09.222Z,12.30
2019-05-01T11:20:09.208Z,12.70
2019-05-01T11:21:09.206Z,12.40
2019-05-01T11:22:09.237Z,12.40
2019-05-01T11:23:09.176Z,12.10
2019-05-01T11:24:09.166Z,12.50
2019-05-01T11:25:09.153Z,12.40
2019-05-01T11:26:09.185Z,12.90
2019-05-01T11:27:09.175Z,12.50
2019-05-01T11:28:09.183Z,12.30
2019-05-01T11:29:09.119Z,12.30
2019-05-01T11:30:09.106Z,12.80
2019-05-01T11:31:09.095Z,12.70
2019-05-01T11:32:09.096Z,12.90
2019-05-01T11:33:09.069Z,13.10
2019-05-01T11:34:09.132Z,12.10
2019-05-01T11:35:09.049Z,12.80
2019-05-01T11:36:09.932Z,12.00
2019-05-01T11:37:09.058Z,11.70
2019-05-01T11:38:09.052Z,12.10
2019-05-01T11:39:09.019Z,11.80
2019-05-01T11:40:09.010Z,11.90
2019-05-01T11:41:08.981Z,12.40
2019-05-01T11:42:08.992Z,11.10
2019-05-01T11:43:08.983Z,12.10
2019-05-01T11:44:08.948Z,11.90
2019-05-01T11:45:08.938Z,11.10
2019-05-01T11:46:08.929Z,10.80
2019-05-01T11:47:08.990Z,10.60
2019-05-01T11:48:08.922Z,11.10
2019-05-01T11:49:08.915Z,10.70
2019-05-01T11:50:08.884Z,12.10
2019-05-01T11:51:08.887Z,12.40
2019-05-01T11:52:08.860Z,12.00
2019-05-01T11:53:08.862Z,11.60
2019-05-01T11:54:08.855Z,10.90
2019-05-01T11:55:08.828Z,11.90
2019-05-01T11:56:08.824Z,11.00
2019-05-01T11:57:08.818Z,11.50
2019-05-01T11:58:08.881Z,11.50
2019-05-01T11:59:08.786Z,11.80
2019-05-01T12:00:08.787Z,11.50
2019-05-01T12:01:08.775Z,11.80
2019-05-01T12:02:08.805Z,11.70
2019-05-01T12:03:08.767Z,11.10
2019-05-01T12:04:08.759Z,11.50
2019-05-01T12:05:08.732Z,11.30
2019-05-01T12:06:08.709Z,10.80
2019-05-01T12:07:08.715Z,10.10
2019-05-01T12:08:08.735Z,10.50
2019-05-01T12:09:08.680Z,11.20
2019-05-01T12:10:08.694Z,10.10
2019-05-01T12:11:08.665Z,9.70
2019-05-01T12:12:08.647Z,9.60
2019-05-01T12:13:08.653Z,10.90
2019-05-01T12:14:08.630Z,10.70
2019-05-01T12:15:08.619Z,10.60
2019-05-01T12:16:08.600Z,11.50
2019-05-01T12:17:08.623Z,11.50
2019-05-01T12:18:08.629Z,11.60
2019-05-01T12:19:08.569Z,10.30
2019-05-01T12:20:08.568Z,14.40
2019-05-01T12:21:08.553Z,13.20
2019-05-01T12:22:08.549Z,11.30
2019-05-01T12:23:08.668Z,10.10
2019-05-01T12:24:08.553Z,10.60
2019-05-01T12:25:08.503Z,10.70
2019-05-01T12:26:08.513Z,11.40
2019-05-01T12:27:08.511Z,11.20
2019-05-01T12:28:08.597Z,10.80
2019-05-01T12:29:08.504Z,11.10
2019-05-01T12:30:08.453Z,11.50
2019-05-01T12:31:08.479Z,10.50
2019-05-01T12:32:08.433Z,9.90
2019-05-01T12:33:08.416Z,10.60
2019-05-01T12:34:08.453Z,10.10
2019-05-01T12:35:08.397Z,9.70
2019-05-01T12:36:08.382Z,10.50
2019-05-01T12:37:08.376Z,10.80
2019-05-01T12:38:08.385Z,11.30
2019-05-01T12:39:08.355Z,10.00
2019-05-01T12:40:08.401Z,10.90
2019-05-01T12:41:08.330Z,10.20
2019-05-01T12:42:08.344Z,10.30
2019-05-01T12:43:08.303Z,10.00
2019-05-01T12:44:08.319Z,10.10
2019-05-01T12:45:08.308Z,10.40
2019-05-01T12:46:08.279Z,10.20
2019-05-01T12:47:08.276Z,10.20
2019-05-01T12:48:08.272Z,10.20
2019-05-01T12:49:08.239Z,9.80
2019-05-01T12:50:08.250Z,10.20
2019-05-01T12:51:08.258Z,10.10
2019-05-01T12:52:10.668Z,9.90